createdAt,value
2022-08-26T00:08:45.960Z,82.99
2022-08-26T00:09:25.468Z,82.89
2022-08-26T00:10:25.890Z,83.09
2022-08-26T00:11:26.810Z,82.99
2022-08-26T00:12:31.566Z,83.13
2022-08-26T00:13:25.743Z,83.13
2022-08-26T00:14:29.661Z,83.33
2022-08-26T00:15:25.392Z,83.53
2022-08-26T00:16:25.424Z,83.83
2022-08-26T00:17:25.367Z,83.83
2022-08-26T00:18:25.362Z,84.03
2022-08-26T00:19:25.408Z,84.27
2022-08-26T00:20:25.324Z,84.37
2022-08-26T00:21:25.293Z,84.47
2022-08-26T00:22:25.316Z,84.37
2022-08-26T00:23:25.319Z,84.13
2022-08-26T00:24:25.269Z,84.13
2022-08-26T00:25:25.295Z,84.03
2022-08-26T00:26:25.227Z,83.93
2022-08-26T00:27:25.240Z,83.73
2022-08-26T00:28:25.277Z,83.43
2022-08-26T00:29:25.230Z,83.53
2022-08-26T00:30:26.612Z,83.63
2022-08-26T00:31:25.297Z,83.63
2022-08-26T00:32:25.217Z,83.73
2022-08-26T00:33:25.145Z,83.63
2022-08-26T00:34:25.181Z,83.63
2022-08-26T00:35:25.174Z,83.53
2022-08-26T00:36:25.137Z,83.53
2022-08-26T00:37:25.159Z,83.53
2022-08-26T00:38:25.156Z,83.63
2022-08-26T00:48:36.668Z,83.83
2022-08-26T00:49:37.681Z,83.73
2022-08-26T01:02:38.208Z,83.29
2022-08-26T01:03:34.564Z,83.19
2022-08-26T01:06:16.876Z,83.09
2022-08-26T01:07:16.907Z,83.09
2022-08-26T01:08:16.907Z,83.33
2022-08-26T01:14:56.928Z,83.53
2022-08-26T01:15:57.009Z,83.53
2022-08-26T01:16:57.000Z,83.39
2022-08-26T01:17:56.894Z,83.29
2022-08-26T01:18:56.938Z,83.19
2022-08-26T01:19:57.127Z,83.29
2022-08-26T01:20:57.795Z,83.39
2022-08-26T01:23:46.528Z,83.29
2022-08-26T01:24:08.188Z,83.39
2022-08-26T01:25:22.639Z,83.29
2022-08-26T01:26:08.142Z,83.53
2022-08-26T01:27:08.347Z,83.73
2022-08-26T01:28:08.127Z,83.73
2022-08-26T01:29:08.114Z,83.63
2022-08-26T01:30:08.144Z,83.53
2022-08-26T01:31:08.125Z,83.63
2022-08-26T01:32:08.110Z,83.63
2022-08-26T01:33:08.365Z,83.63
2022-08-26T01:34:09.101Z,83.63
2022-08-26T01:35:08.065Z,83.73
2022-08-26T01:36:08.026Z,83.83
2022-08-26T01:37:09.038Z,83.83
2022-08-26T01:38:08.009Z,83.83
2022-08-26T01:39:07.997Z,83.93
2022-08-26T01:40:30.394Z,83.93
2022-08-26T01:41:16.146Z,84.03
2022-08-26T01:42:10.378Z,84.13
2022-08-26T01:43:08.177Z,84.03
2022-08-26T01:44:08.089Z,84.13
2022-08-26T01:45:07.940Z,83.93
2022-08-26T01:46:08.254Z,83.93
2022-08-26T01:47:07.880Z,83.83
2022-08-26T01:48:07.975Z,84.03
2022-08-26T01:49:07.986Z,84.13
2022-08-26T01:50:07.868Z,84.33
2022-08-26T01:51:07.852Z,84.47
2022-08-26T01:52:07.825Z,84.47
2022-08-26T01:53:08.209Z,84.47
2022-08-26T01:54:07.876Z,84.47
2022-08-26T01:55:07.834Z,84.53
2022-08-26T01:56:07.830Z,84.33
2022-08-26T01:57:07.796Z,84.33
2022-08-26T01:58:07.817Z,84.23
2022-08-26T01:59:07.756Z,84.13
2022-08-26T02:00:07.832Z,84.03
2022-08-26T02:03:13.214Z,83.49
2022-08-26T02:04:14.193Z,83.53
2022-08-26T02:05:14.171Z,83.63
2022-08-26T02:06:14.187Z,83.73
2022-08-26T02:07:14.126Z,83.83
2022-08-26T02:08:14.083Z,83.93
2022-08-26T02:10:31.247Z,83.93
2022-08-26T02:10:36.963Z,84.13
2022-08-26T02:11:37.183Z,84.23
2022-08-26T07:16:14.104Z,88.54
2022-08-26T07:17:14.799Z,88.94
2022-08-26T07:18:14.830Z,88.64
2022-08-26T07:19:14.791Z,87.83
2022-08-26T07:20:14.824Z,87.39
2022-08-26T07:21:14.797Z,87.39
2022-08-26T07:22:14.735Z,87.29
2022-08-26T07:23:14.713Z,86.99
2022-08-26T07:24:14.771Z,86.79
2022-08-26T07:25:14.762Z,86.68
2022-08-26T07:26:14.738Z,86.54
2022-08-26T07:27:14.749Z,87.55
2022-08-26T07:28:14.658Z,86.85
2022-08-26T07:29:14.649Z,86.04
2022-08-26T07:30:14.978Z,85.94
2022-08-26T07:31:14.680Z,85.94
2022-08-26T08:54:28.184Z,86.48
2022-08-26T08:55:28.897Z,86.24
2022-08-26T08:56:28.884Z,86.85
2022-08-26T08:57:29.021Z,86.74
2022-08-26T08:58:28.858Z,86.44
2022-08-26T08:59:28.889Z,85.94
2022-08-26T09:00:30.218Z,85.39
2022-08-26T09:01:28.848Z,85.30
2022-08-26T09:02:28.905Z,85.10
2022-08-26T09:03:28.820Z,84.89
2022-08-26T09:04:28.785Z,84.89
2022-08-26T09:05:28.806Z,85.14
2022-08-26T09:06:28.803Z,85.24
2022-08-26T09:07:29.793Z,85.24
2022-08-26T09:08:28.779Z,85.44
2022-08-26T09:09:28.742Z,85.53
2022-08-26T09:10:28.732Z,86.44
2022-08-26T09:11:28.733Z,86.24
2022-08-26T09:12:29.508Z,85.74
2022-08-26T09:13:28.710Z,86.24
2022-08-26T09:14:28.711Z,86.20
2022-08-26T09:15:30.538Z,86.00
2022-08-26T09:16:28.707Z,85.70
2022-08-26T09:17:28.695Z,85.46
2022-08-26T09:18:28.655Z,84.55
2022-08-26T09:19:28.648Z,84.19
2022-08-26T09:20:28.636Z,84.29
2022-08-26T09:21:28.582Z,84.39
2022-08-26T09:22:28.685Z,84.49
2022-08-26T09:23:28.634Z,84.69
2022-08-26T09:24:28.952Z,85.19
2022-08-26T09:25:50.821Z,84.89
2022-08-26T09:26:30.623Z,85.60
2022-08-26T09:27:28.548Z,85.19
2022-08-26T09:28:28.528Z,85.70
2022-08-26T09:29:28.538Z,84.99
2022-08-26T09:30:28.556Z,84.59
2022-08-26T09:31:28.615Z,84.49
2022-08-26T09:51:01.943Z,86.24
2022-08-26T09:51:59.610Z,86.04
2022-08-26T09:52:59.603Z,86.04
2022-08-26T09:55:34.317Z,85.94
2022-08-26T09:56:33.801Z,85.94
2022-08-26T10:13:36.910Z,88.13
2022-08-26T10:14:37.711Z,88.13
2022-08-26T10:15:37.630Z,87.89
2022-08-26T10:16:59.752Z,87.69
2022-08-26T10:17:37.631Z,87.49
2022-08-26T10:18:37.591Z,87.29
2022-08-26T10:19:55.876Z,86.99
2022-08-26T10:20:37.641Z,86.54
2022-08-26T10:21:37.579Z,86.14
2022-08-26T10:23:01.038Z,86.24
2022-08-26T10:26:01.291Z,85.84
2022-08-26T10:27:01.456Z,85.60
2022-08-26T10:28:01.468Z,85.70
2022-08-26T10:29:01.545Z,85.60
2022-08-26T10:30:01.448Z,85.50
2022-08-26T10:31:01.455Z,85.50
2022-08-26T10:32:02.474Z,85.19
2022-08-26T10:33:01.420Z,85.19
2022-08-26T10:34:01.397Z,85.39
2022-08-26T10:35:01.404Z,85.44
2022-08-26T10:36:01.369Z,85.84
2022-08-26T10:37:14.614Z,86.14
2022-08-26T10:38:01.371Z,86.44
2022-08-26T10:39:01.377Z,86.54
2022-08-26T10:40:01.368Z,86.54
2022-08-26T10:41:01.343Z,86.54
2022-08-26T10:42:01.313Z,86.30
2022-08-26T10:43:01.360Z,85.90
2022-08-26T10:44:01.278Z,85.70
2022-08-26T10:45:01.291Z,85.30
2022-08-26T10:46:01.282Z,85.19
2022-08-26T10:47:01.206Z,85.10
2022-08-26T10:48:01.271Z,84.75
2022-08-26T10:49:01.293Z,84.65
2022-08-26T10:50:03.297Z,84.45
2022-08-26T10:51:01.172Z,84.35
2022-08-26T10:52:01.201Z,84.45
2022-08-26T10:53:01.176Z,84.35
2022-08-26T10:54:01.135Z,84.25
2022-08-26T10:55:01.199Z,84.15
2022-08-26T10:56:01.158Z,83.95
2022-08-26T10:57:01.101Z,84.15
2022-08-26T10:58:04.634Z,84.25
2022-08-26T10:59:01.150Z,84.35
2022-08-26T11:00:01.109Z,84.55
2022-08-26T11:01:01.172Z,84.55
2022-08-26T11:02:01.058Z,84.65
2022-08-26T11:03:01.066Z,84.55
2022-08-26T11:04:01.244Z,84.15
2022-08-26T11:05:01.089Z,83.95
2022-08-26T11:06:01.004Z,84.05
2022-08-26T11:07:01.039Z,83.91
2022-08-26T11:08:01.046Z,83.61
2022-08-26T11:09:01.039Z,83.31
2022-08-26T11:10:01.009Z,82.60
2022-08-26T11:11:01.141Z,81.50
2022-08-26T11:12:05.102Z,81.30
2022-08-26T11:13:00.969Z,81.06
2022-08-26T11:14:00.955Z,80.96
2022-08-26T11:15:00.962Z,80.46
2022-08-26T11:16:01.308Z,80.46
2022-08-26T11:17:00.952Z,80.46
2022-08-26T11:18:00.908Z,80.66
2022-08-26T11:19:00.932Z,80.92
2022-08-26T11:20:03.292Z,80.32
2022-08-26T11:21:00.921Z,80.32
2022-08-26T11:22:00.897Z,80.22
2022-08-26T11:23:00.841Z,80.02
2022-08-26T11:24:00.832Z,79.02
2022-08-26T11:25:00.842Z,78.22
2022-08-26T11:26:00.861Z,77.41
2022-08-26T11:27:00.795Z,77.45
2022-08-26T11:28:00.967Z,77.55
2022-08-26T11:29:00.827Z,77.65
2022-08-26T11:30:00.740Z,77.65
2022-08-26T11:31:00.820Z,77.65
2022-08-26T11:32:00.791Z,77.35
2022-08-26T11:33:00.728Z,77.25
2022-08-26T11:34:00.800Z,77.25
2022-08-26T11:35:00.780Z,77.35
2022-08-26T11:36:00.743Z,77.05
2022-08-26T11:37:00.712Z,76.85
2022-08-26T11:38:00.690Z,77.15
2022-08-26T11:39:00.687Z,77.59
2022-08-26T11:40:00.761Z,77.48
2022-08-26T11:41:00.723Z,77.19
2022-08-26T11:42:00.605Z,77.48
2022-08-26T11:43:00.665Z,77.28
2022-08-26T11:44:01.229Z,77.59
2022-08-26T11:45:04.704Z,77.69
2022-08-26T11:46:00.625Z,77.69
2022-08-26T11:47:00.593Z,77.79
2022-08-26T11:48:00.537Z,77.79
2022-08-26T11:49:00.554Z,77.69
2022-08-26T11:50:00.566Z,77.45
2022-08-26T11:51:00.597Z,77.05
2022-08-26T11:52:00.469Z,76.85
2022-08-26T11:53:00.491Z,76.85
2022-08-26T11:54:00.534Z,76.81
2022-08-26T11:55:00.521Z,76.41
2022-08-26T11:56:00.503Z,76.01
2022-08-26T11:57:02.105Z,76.11
2022-08-26T11:58:00.430Z,76.01
2022-08-26T11:59:00.442Z,76.01
2022-08-26T12:00:00.505Z,76.11
2022-08-26T12:01:00.415Z,76.01
2022-08-26T12:02:01.346Z,76.11
2022-08-26T12:03:00.385Z,76.07
2022-08-26T12:04:00.961Z,75.87
2022-08-26T12:05:00.359Z,75.37
2022-08-26T12:06:00.395Z,75.27
2022-08-26T12:07:00.399Z,75.17
2022-08-26T12:08:01.312Z,75.37
2022-08-26T12:09:00.322Z,75.57
2022-08-26T12:10:00.586Z,75.77
2022-08-26T12:11:00.327Z,75.63
2022-08-26T12:12:00.336Z,75.84
2022-08-26T12:13:03.728Z,75.54
2022-08-26T12:14:00.225Z,74.84
2022-08-26T12:15:00.244Z,74.40
2022-08-26T12:16:00.262Z,73.19
2022-08-26T12:17:00.189Z,73.03
2022-08-26T12:18:00.257Z,73.53
2022-08-26T12:19:00.203Z,73.83
2022-08-26T12:20:00.232Z,73.73
2022-08-26T12:21:00.214Z,73.73
2022-08-26T12:22:00.186Z,73.73
2022-08-26T12:23:00.177Z,73.80
2022-08-26T12:24:00.186Z,74.10
2022-08-26T12:25:00.389Z,74.00
2022-08-26T12:26:00.175Z,73.50
2022-08-26T12:27:00.143Z,73.16
2022-08-26T12:28:00.142Z,73.06
2022-08-26T12:29:00.142Z,72.66
2022-08-26T12:30:00.078Z,72.36
2022-08-26T12:31:00.124Z,71.92
2022-08-26T12:32:00.201Z,71.92
2022-08-26T12:33:00.097Z,72.33
2022-08-26T12:34:00.081Z,72.03
2022-08-26T12:35:00.166Z,72.33
2022-08-26T12:36:00.068Z,72.13
2022-08-26T12:37:58.999Z,70.49
2022-08-26T12:39:00.045Z,70.19
2022-08-26T12:40:00.038Z,70.19
2022-08-26T12:40:59.973Z,69.89
2022-08-26T12:42:01.591Z,69.59
2022-08-26T12:42:59.966Z,69.59
2022-08-26T12:43:59.966Z,69.79
2022-08-26T12:44:59.913Z,69.59
2022-08-26T12:46:00.066Z,69.79
2022-08-26T12:46:59.888Z,69.09
2022-08-26T12:47:59.889Z,68.69
2022-08-26T12:49:00.153Z,68.59
2022-08-26T12:49:59.866Z,68.66
2022-08-26T12:50:59.900Z,68.96
2022-08-26T12:51:59.843Z,69.46
2022-08-26T12:52:59.874Z,69.23
2022-08-26T12:53:59.768Z,69.13
2022-08-26T12:54:59.834Z,69.62
2022-08-26T12:55:59.772Z,69.89
2022-08-26T12:56:59.803Z,69.29
2022-08-26T12:58:01.096Z,68.89
2022-08-26T12:58:59.780Z,67.90
2022-08-26T13:00:00.335Z,67.66
2022-08-26T13:00:59.950Z,66.66
2022-08-26T13:01:59.866Z,67.23
2022-08-26T13:02:59.726Z,67.23
2022-08-26T13:03:59.704Z,66.33
2022-08-26T13:05:00.914Z,65.44
2022-08-26T13:05:59.717Z,65.44
2022-08-26T13:06:59.775Z,66.83
2022-08-26T13:07:59.665Z,67.10
2022-08-26T13:08:59.643Z,66.20
2022-08-26T13:09:59.658Z,66.10
2022-08-26T13:10:59.632Z,65.87
2022-08-26T13:11:59.605Z,65.27
2022-08-26T13:12:59.846Z,64.37
2022-08-26T13:13:59.554Z,64.18
2022-08-26T13:14:59.599Z,62.95
2022-08-26T13:15:59.581Z,62.55
2022-08-26T13:17:00.376Z,61.36
2022-08-26T13:17:59.570Z,61.25
2022-08-26T13:18:59.533Z,60.86
2022-08-26T13:20:03.482Z,61.06
2022-08-26T13:20:59.566Z,60.63
2022-08-26T13:21:59.518Z,61.93
2022-08-26T13:22:59.556Z,61.10
2022-08-26T13:23:59.537Z,60.50
2022-08-26T13:24:59.514Z,61.10
2022-08-26T13:25:59.452Z,60.27
2022-08-26T13:26:59.456Z,60.05
2022-08-26T13:27:59.442Z,59.85
2022-08-26T13:29:02.219Z,59.72
2022-08-26T13:29:59.454Z,59.72
2022-08-26T13:30:59.494Z,58.73
2022-08-26T13:31:59.408Z,58.73
2022-08-26T13:32:59.364Z,59.09
2022-08-26T13:33:59.378Z,59.59
2022-08-26T13:34:59.740Z,59.00
2022-08-26T13:35:59.350Z,58.70
2022-08-26T13:36:59.303Z,58.53
2022-08-26T13:37:59.316Z,57.43
2022-08-26T13:38:59.310Z,57.86
2022-08-26T13:39:59.374Z,58.16
2022-08-26T13:40:59.315Z,58.45
2022-08-26T13:41:59.257Z,58.36
2022-08-26T13:42:59.269Z,58.26
2022-08-26T13:43:59.575Z,58.26
2022-08-26T13:44:59.256Z,57.86
2022-08-26T13:45:59.268Z,57.96
2022-08-26T13:46:59.232Z,59.05
2022-08-26T13:47:59.196Z,58.86
2022-08-26T13:48:59.251Z,58.26
2022-08-26T13:49:59.176Z,57.56
2022-08-26T13:50:59.201Z,57.36
2022-08-26T13:51:59.159Z,57.26
2022-08-26T13:52:59.153Z,57.34
2022-08-26T13:53:59.154Z,57.83
2022-08-26T13:54:59.176Z,59.42
2022-08-26T13:55:59.151Z,58.33
2022-08-26T13:56:59.129Z,58.43
2022-08-26T13:57:59.128Z,58.20
2022-08-26T13:58:59.097Z,62.80
2022-08-26T13:59:59.158Z,58.26
2022-08-26T14:00:59.145Z,57.76
2022-08-26T14:01:59.087Z,57.69
2022-08-26T14:02:59.082Z,57.79
2022-08-26T14:03:59.067Z,59.05
2022-08-26T14:04:59.073Z,58.36
2022-08-26T14:05:59.021Z,58.45
2022-08-26T14:06:59.039Z,57.83
2022-08-26T14:07:59.045Z,56.94
2022-08-26T14:08:58.955Z,56.04
2022-08-26T14:09:59.031Z,56.04
2022-08-26T14:10:58.943Z,56.24
2022-08-26T14:12:01.023Z,56.24
2022-08-26T14:12:58.995Z,56.94
2022-08-26T14:13:58.900Z,56.34
2022-08-26T14:14:58.951Z,57.01
2022-08-26T14:15:59.124Z,57.11
2022-08-26T14:17:00.433Z,56.71
2022-08-26T14:17:58.926Z,57.18
2022-08-26T14:18:58.942Z,57.78
2022-08-26T14:19:58.878Z,57.78
2022-08-26T14:20:58.878Z,56.06
2022-08-26T14:21:58.893Z,55.27
2022-08-26T14:23:13.246Z,55.10
2022-08-26T14:24:00.948Z,55.40
2022-08-26T14:24:58.850Z,55.40
2022-08-26T14:25:58.811Z,55.49
2022-08-26T14:26:58.820Z,55.82
2022-08-26T14:27:58.827Z,56.02
2022-08-26T14:28:58.974Z,55.62
2022-08-26T14:29:58.792Z,55.91
2022-08-26T14:30:58.814Z,56.02
2022-08-26T14:31:58.765Z,55.59
2022-08-26T14:32:59.480Z,55.00
2022-08-26T14:33:58.737Z,54.60
2022-08-26T14:34:58.719Z,55.00
2022-08-26T14:35:58.698Z,54.87
2022-08-26T14:36:58.747Z,55.07
2022-08-26T14:37:59.405Z,55.74
2022-08-26T14:38:58.695Z,55.15
2022-08-26T14:39:58.772Z,54.42
2022-08-26T14:40:58.673Z,54.32
2022-08-26T14:41:58.699Z,53.83
2022-08-26T14:43:09.113Z,53.63
2022-08-26T14:43:58.664Z,55.51
2022-08-26T14:44:58.640Z,54.52
2022-08-26T14:45:58.549Z,54.39
2022-08-26T14:46:58.608Z,52.31
2022-08-26T14:47:58.592Z,52.12
2022-08-26T14:49:01.785Z,52.54
2022-08-26T14:49:58.634Z,52.54
2022-08-26T14:50:58.529Z,52.64
2022-08-26T14:51:58.543Z,52.44
2022-08-26T14:52:59.256Z,52.14
2022-08-26T14:53:58.523Z,52.44
2022-08-26T14:54:58.521Z,52.14
2022-08-26T14:55:58.483Z,51.94
2022-08-26T14:59:04.936Z,52.24
2022-08-26T15:00:05.957Z,51.84
2022-08-26T15:01:05.870Z,51.94
2022-08-26T15:02:05.954Z,51.94
2022-08-26T15:03:06.091Z,51.94
2022-08-26T15:04:05.886Z,51.54
2022-08-26T15:05:05.839Z,51.35
2022-08-26T15:06:05.866Z,51.65
2022-08-26T15:07:05.787Z,51.52
2022-08-26T16:34:13.385Z,37.76
2022-08-26T16:35:12.354Z,38.35
2022-08-26T16:36:12.414Z,38.35
2022-08-26T16:37:12.423Z,38.95
2022-08-26T16:38:12.364Z,41.12
2022-08-26T16:39:12.389Z,38.85
2022-08-26T16:40:12.432Z,39.25
2022-08-26T16:41:12.317Z,41.25
2022-08-26T16:42:12.313Z,40.86
2022-08-26T16:43:15.183Z,40.69
2022-08-26T16:44:12.309Z,40.39
2022-08-26T16:45:12.284Z,39.70
2022-08-26T16:46:12.336Z,40.39
2022-08-26T16:47:12.256Z,40.78
2022-08-26T16:48:12.254Z,41.57
2022-08-26T16:49:12.283Z,40.98
2022-08-26T16:50:12.237Z,39.87
2022-08-26T16:51:12.199Z,37.01
2022-08-26T16:52:14.044Z,36.21
2022-08-26T16:54:12.230Z,36.88
2022-08-26T16:55:12.147Z,35.60
2022-08-26T16:56:12.168Z,37.65
2022-08-26T16:57:12.139Z,38.73
2022-08-26T16:58:12.171Z,38.24
2022-08-26T16:59:12.078Z,36.25
2022-08-26T17:00:12.278Z,34.17
2022-08-26T17:01:12.153Z,33.28
2022-08-26T17:02:12.089Z,35.84
2022-08-26T17:04:46.216Z,38.12
2022-08-26T17:05:45.216Z,37.53
2022-08-26T17:06:45.203Z,37.34
2022-08-26T17:07:45.158Z,37.95
2022-08-26T17:08:45.252Z,38.24
2022-08-26T17:09:45.169Z,36.17
2022-08-26T17:10:45.141Z,35.86
2022-08-26T17:11:45.148Z,33.51
2022-08-26T17:12:45.152Z,33.80
2022-08-26T17:13:45.143Z,34.51
2022-08-26T17:14:45.834Z,38.06
2022-08-26T17:15:45.191Z,34.92
2022-08-26T17:16:45.077Z,36.60
2022-08-26T17:17:45.050Z,37.98
2022-08-26T17:18:45.116Z,35.91
2022-08-26T17:19:46.813Z,34.12
2022-08-26T17:20:45.074Z,33.70
2022-08-26T17:21:45.033Z,33.51
2022-08-26T17:22:45.020Z,33.39
2022-08-26T17:23:53.971Z,33.39
2022-08-26T17:24:45.003Z,32.98
2022-08-26T17:25:44.954Z,33.46
2022-08-26T17:26:47.796Z,32.86
2022-08-26T17:27:44.984Z,36.40
2022-08-26T17:28:44.923Z,35.99
2022-08-26T17:29:45.010Z,35.80
2022-08-26T17:30:44.903Z,34.82
2022-08-26T17:31:44.941Z,36.49
2022-08-26T17:32:44.902Z,36.97
2022-08-26T17:33:48.848Z,35.61
2022-08-26T17:34:44.880Z,32.79
2022-08-26T17:35:44.859Z,33.11
2022-08-26T17:36:44.868Z,37.45
2022-08-26T17:37:44.857Z,40.23
2022-08-26T17:38:44.872Z,37.47
2022-08-26T17:39:44.811Z,38.67
2022-08-26T17:40:44.798Z,39.15
2022-08-26T17:41:44.831Z,36.29
2022-08-26T17:42:44.782Z,38.87
2022-08-26T17:43:44.791Z,40.64
2022-08-26T17:44:44.786Z,39.26
2022-08-26T17:45:44.727Z,38.29
2022-08-26T17:46:44.852Z,38.90
2022-08-26T17:47:44.771Z,39.91
2022-08-26T17:48:44.725Z,37.62
2022-08-26T17:49:44.693Z,39.22
2022-08-26T17:50:45.520Z,40.29
2022-08-26T17:51:44.784Z,37.94
2022-08-26T17:52:44.714Z,40.50
2022-08-26T17:53:44.704Z,39.14
2022-08-26T17:54:44.653Z,38.27
2022-08-26T17:55:45.140Z,41.33
2022-08-26T17:56:44.658Z,40.74
2022-08-26T17:57:53.279Z,40.86
2022-08-26T17:58:48.216Z,41.06
2022-08-26T17:59:44.612Z,36.61
2022-08-26T18:00:44.544Z,36.21
2022-08-26T18:01:44.644Z,36.21
2022-08-26T18:02:44.637Z,36.41
2022-08-26T18:03:44.620Z,39.28
2022-08-26T18:04:44.552Z,38.98
2022-08-26T18:05:44.512Z,40.15
2022-08-26T18:06:44.562Z,40.37
2022-08-26T18:07:44.570Z,40.56
2022-08-26T18:08:44.566Z,41.95
2022-08-26T18:09:44.542Z,42.35
2022-08-26T18:10:44.527Z,41.06
2022-08-26T18:11:44.490Z,40.09
2022-08-26T18:12:44.489Z,41.87
2022-08-26T18:13:47.371Z,40.58
2022-08-26T18:14:44.667Z,42.17
2022-08-26T18:15:44.519Z,43.16
2022-08-26T18:16:44.457Z,41.18
2022-08-26T18:17:44.374Z,40.70
2022-08-26T18:18:44.421Z,40.39
2022-08-26T18:19:44.438Z,40.39
2022-08-26T18:20:44.367Z,42.27
2022-08-26T18:21:44.426Z,42.36
2022-08-26T18:22:44.399Z,42.19
2022-08-26T18:23:44.397Z,41.49
2022-08-26T18:24:58.921Z,41.39
2022-08-26T18:25:44.347Z,39.61
2022-08-26T18:26:44.326Z,39.71
2022-08-26T18:27:44.334Z,41.79
2022-08-26T18:28:44.339Z,42.09
2022-08-26T18:29:45.609Z,43.08
2022-08-26T18:30:44.322Z,43.28
2022-08-26T18:31:44.263Z,43.60
2022-08-26T18:32:44.278Z,42.01
2022-08-26T18:33:44.265Z,42.01
2022-08-26T18:34:44.288Z,42.60
2022-08-26T18:35:44.207Z,43.99
2022-08-26T18:36:44.217Z,44.31
2022-08-26T18:37:44.186Z,43.71
2022-08-26T18:38:44.215Z,43.44
2022-08-26T18:39:44.216Z,42.65
2022-08-26T18:40:44.163Z,42.65
2022-08-26T18:41:44.169Z,43.04
2022-08-26T18:42:44.159Z,42.25
2022-08-26T18:43:44.166Z,42.65
2022-08-26T18:44:44.168Z,43.64
2022-08-26T18:45:44.124Z,46.61
2022-08-26T18:46:44.100Z,48.97
2022-08-26T18:47:44.137Z,50.06
2022-08-26T18:48:44.092Z,50.76
2022-08-26T18:49:44.050Z,51.05
2022-08-26T18:50:47.312Z,53.33
2022-08-26T18:51:44.026Z,53.85
2022-08-26T18:52:43.989Z,52.96
2022-08-26T18:53:44.047Z,54.45
2022-08-26T18:54:44.036Z,54.94
2022-08-26T18:55:43.977Z,54.87
2022-08-26T18:56:44.022Z,55.47
2022-08-26T18:57:43.954Z,55.47
2022-08-26T18:58:43.961Z,55.87
2022-08-26T18:59:43.990Z,55.96
2022-08-26T19:00:43.930Z,56.36
2022-08-26T19:01:44.102Z,56.46
2022-08-26T19:02:51.683Z,56.76
2022-08-26T19:03:43.981Z,56.95
2022-08-26T19:04:43.889Z,56.95
2022-08-26T19:05:43.924Z,57.15
2022-08-26T19:06:43.892Z,57.55
2022-08-26T19:07:43.836Z,58.04
2022-08-26T19:08:44.613Z,58.15
2022-08-26T19:09:43.851Z,58.25
2022-08-26T19:10:43.849Z,58.34
2022-08-26T19:11:43.889Z,58.87
2022-08-26T19:12:43.859Z,59.07
2022-08-26T19:13:43.793Z,59.56
2022-08-26T19:14:43.816Z,59.86
2022-08-26T19:15:43.800Z,60.06
2022-08-26T19:16:43.895Z,60.26
2022-08-26T19:17:43.758Z,60.46
2022-08-26T19:18:43.816Z,60.85
2022-08-26T19:19:43.777Z,61.08
2022-08-26T19:20:46.633Z,61.38
2022-08-26T19:21:43.698Z,61.08
2022-08-26T19:22:43.697Z,61.48
2022-08-26T19:23:43.653Z,61.88
2022-08-26T19:24:43.652Z,61.98
2022-08-26T19:25:43.667Z,61.98
2022-08-26T19:26:43.697Z,61.78
2022-08-26T19:27:43.622Z,62.47
2022-08-26T19:28:43.650Z,62.60
2022-08-26T19:29:43.640Z,62.70
2022-08-26T19:30:43.699Z,63.00
2022-08-26T19:31:43.999Z,63.00
2022-08-26T19:32:43.681Z,63.10
2022-08-26T19:33:43.585Z,63.10
2022-08-26T19:34:43.598Z,63.20
2022-08-26T19:35:43.571Z,63.49
2022-08-26T19:36:44.897Z,63.49
2022-08-26T19:37:43.498Z,63.20
2022-08-26T19:38:43.524Z,63.00
2022-08-26T19:39:43.522Z,62.60
2022-08-26T19:40:43.578Z,62.70
2022-08-26T19:41:43.473Z,62.30
2022-08-26T19:42:43.469Z,62.40
2022-08-26T19:43:43.489Z,62.60
2022-08-26T19:44:43.483Z,62.50
2022-08-26T19:45:43.571Z,63.00
2022-08-26T19:46:43.466Z,63.00
2022-08-26T19:47:43.396Z,62.93
2022-08-26T19:48:43.423Z,62.83
2022-08-26T19:49:43.393Z,62.83
2022-08-26T19:50:43.408Z,62.93
2022-08-26T19:51:43.407Z,63.13
2022-08-26T19:52:43.381Z,62.93
2022-08-26T19:53:43.332Z,62.93
2022-08-26T19:54:43.346Z,63.03
2022-08-26T19:55:43.323Z,62.73
2022-08-26T19:56:45.866Z,62.73
2022-08-26T19:57:43.331Z,62.83
2022-08-26T19:58:43.273Z,62.83
2022-08-26T19:59:43.279Z,62.63
2022-08-26T20:00:43.282Z,62.73
2022-08-26T20:01:43.266Z,62.73
2022-08-26T20:02:43.359Z,62.73
2022-08-26T20:03:43.238Z,62.83
2022-08-26T20:04:43.235Z,63.03
2022-08-26T20:05:43.226Z,62.93
2022-08-26T20:06:43.238Z,63.03
2022-08-26T20:07:43.184Z,63.33
2022-08-26T20:08:43.229Z,63.23
2022-08-26T20:09:43.212Z,63.03
2022-08-26T20:10:43.159Z,62.93
2022-08-26T20:11:43.189Z,63.13
2022-08-26T20:12:43.146Z,63.33
2022-08-26T20:13:43.149Z,63.03
2022-08-26T20:14:43.209Z,63.33
2022-08-26T20:15:43.107Z,63.53
2022-08-26T20:16:43.080Z,63.33
2022-08-26T20:17:43.060Z,63.23
2022-08-26T20:18:43.101Z,63.43
2022-08-26T20:19:43.138Z,63.26
2022-08-26T20:20:43.078Z,63.46
2022-08-26T20:21:43.036Z,63.46
2022-08-26T20:22:43.027Z,63.66
2022-08-26T20:23:43.019Z,64.25
2022-08-26T20:24:43.043Z,64.36
2022-08-26T20:25:43.023Z,64.65
2022-08-26T20:26:42.973Z,64.85
2022-08-26T20:27:42.928Z,64.85
2022-08-26T20:28:42.985Z,64.95
2022-08-26T20:29:42.914Z,64.95
2022-08-26T20:30:42.954Z,64.95
2022-08-26T20:31:43.003Z,65.18
2022-08-26T20:32:42.926Z,65.08
2022-08-26T20:33:46.552Z,64.88
2022-08-26T20:34:42.926Z,64.78
2022-08-26T20:35:42.924Z,64.75
2022-08-26T20:36:42.829Z,64.36
2022-08-26T20:37:42.845Z,63.76
2022-08-26T20:38:42.871Z,63.26
2022-08-26T20:39:42.870Z,63.43
2022-08-26T20:40:42.842Z,63.13
2022-08-26T20:41:42.848Z,62.34
2022-08-26T20:42:42.826Z,62.13
2022-08-26T20:43:42.800Z,61.96
2022-08-26T20:44:46.062Z,62.07
2022-08-26T20:45:42.856Z,62.76
2022-08-26T20:46:42.765Z,62.07
2022-08-26T20:47:42.763Z,61.96
2022-08-26T20:48:42.770Z,61.37
2022-08-26T20:49:42.802Z,61.40
2022-08-26T20:50:42.742Z,61.50
2022-08-26T20:51:42.727Z,61.50
2022-08-26T20:52:42.716Z,61.50
2022-08-26T20:53:42.677Z,61.83
2022-08-26T21:13:08.206Z,62.32
2022-08-26T21:14:16.843Z,65.31
2022-08-26T21:15:09.173Z,63.32
2022-08-26T21:16:09.203Z,63.85
2022-08-26T22:00:28.377Z,59.56
2022-08-26T22:01:28.444Z,60.76
2022-08-26T22:02:28.387Z,59.27
2022-08-26T23:26:43.732Z,56.81
2022-08-26T23:27:42.473Z,57.40
2022-08-26T23:28:42.598Z,56.90
2022-08-26T23:29:42.532Z,56.60
2022-08-26T23:30:42.483Z,57.30
2022-08-26T23:31:42.489Z,57.70
2022-08-26T23:32:42.442Z,57.30
2022-08-26T23:33:42.422Z,57.30
2022-08-26T23:34:42.421Z,57.90
2022-08-26T23:35:42.441Z,57.70
2022-08-26T23:36:42.443Z,57.80
2022-08-26T23:37:42.374Z,58.50
2022-08-26T23:38:42.439Z,59.09
2022-08-26T23:39:42.346Z,59.69
2022-08-26T23:40:42.640Z,59.49
2022-08-26T23:41:42.350Z,59.39
2022-08-26T23:42:42.365Z,60.59
2022-08-26T23:43:42.347Z,60.99
2022-08-26T23:44:42.303Z,60.59
2022-08-26T23:45:42.367Z,60.49
2022-08-26T23:46:42.287Z,60.59
2022-08-26T23:47:42.290Z,60.32
2022-08-26T23:48:42.275Z,59.62
2022-08-26T23:49:42.260Z,57.46
2022-08-26T23:50:42.279Z,57.65
2022-08-26T23:51:42.271Z,57.56
2022-08-26T23:52:42.210Z,57.95
2022-08-26T23:53:42.185Z,58.65
2022-08-26T23:54:42.226Z,59.22
2022-08-26T23:55:42.231Z,59.82
2022-08-26T23:56:42.173Z,60.52
2022-08-26T23:57:42.200Z,61.11
2022-08-26T23:58:42.157Z,61.52
2022-08-26T23:59:43.173Z,61.82
